Time;durP1;ratioP1;P1;durP2;ratioP2;P2;SDS_P1;SDS_P2;PMS_P1;PMS_P2;Temp;Humidity;BMP_temperature;BMP_pressure;BME280_temperature;BME280_humidity;BME280_pressure;Samples;Min_cycle;Max_cycle;Signal;HPM_P1;HPM_P2
2022/08/31 00:05:57;;;;;;;6.40;1.75;;;19.80;99.90;;;;;;5006426;28;20379;-76
2022/08/31 00:08:23;;;;;;;1.30;1.15;;;19.80;99.90;;;;;;5005461;28;20026;-76
2022/08/31 00:10:49;;;;;;;0.65;0.65;;;19.70;99.90;;;;;;4991401;28;20076;-77
2022/08/31 00:13:16;;;;;;;1.10;1.03;;;19.70;99.90;;;;;;4987284;28;20480;-77
2022/08/31 00:15:41;;;;;;;;;;;19.70;99.90;;;;;;4988481;28;20027;-77
2022/08/31 00:18:08;;;;;;;0.50;0.50;;;19.60;99.90;;;;;;5005750;28;19912;-77
2022/08/31 00:20:34;;;;;;;0.40;0.40;;;19.60;99.90;;;;;;5005730;28;20093;-76
2022/08/31 00:23:01;;;;;;;;;;;19.60;99.90;;;;;;5005872;28;20037;-76
2022/08/31 00:25:27;;;;;;;0.60;0.60;;;19.60;99.90;;;;;;5001115;28;19922;-76
2022/08/31 00:27:54;;;;;;;1.80;1.00;;;19.50;99.90;;;;;;5006710;28;20014;-77
2022/08/31 00:30:20;;;;;;;0.30;0.30;;;19.70;99.90;;;;;;5009677;28;20041;-77
2022/08/31 00:32:46;;;;;;;0.57;0.57;;;19.50;99.90;;;;;;5009424;28;20030;-77
2022/08/31 00:35:12;;;;;;;0.63;0.63;;;19.50;99.90;;;;;;5007515;28;20042;-77
2022/08/31 00:37:37;;;;;;;0.40;0.40;;;19.50;99.90;;;;;;4989030;28;20038;-76
2022/08/31 00:40:04;;;;;;;0.63;0.63;;;19.50;99.90;;;;;;4992252;28;20034;-77
2022/08/31 00:42:30;;;;;;;0.80;0.80;;;19.50;99.90;;;;;;4988728;28;20042;-77
2022/08/31 00:44:56;;;;;;;0.30;0.30;;;19.40;99.90;;;;;;4991094;28;20450;-76
2022/08/31 00:47:21;;;;;;;1.17;1.13;;;19.40;99.90;;;;;;4988743;28;20135;-77
2022/08/31 00:49:50;;;;;;;0.40;0.40;;;19.40;99.90;;;;;;4990285;28;20033;-77
2022/08/31 00:52:21;;;;;;;0.38;0.38;;;19.40;99.90;;;;;;4992977;28;20353;-76
2022/08/31 00:54:52;;;;;;;0.30;0.30;;;19.40;99.90;;;;;;4991207;28;20155;-77
2022/08/31 00:57:18;;;;;;;0.30;0.30;;;19.30;99.90;;;;;;5008069;28;20033;-77
2022/08/31 00:59:46;;;;;;;0.85;0.85;;;19.30;99.90;;;;;;5007737;28;20464;-76
2022/08/31 01:02:12;;;;;;;0.45;0.45;;;19.20;99.90;;;;;;4992163;28;20035;-77
2022/08/31 01:04:37;;;;;;;0.37;0.37;;;19.20;99.90;;;;;;4990356;28;20092;-77
2022/08/31 01:07:06;;;;;;;0.33;0.33;;;19.20;99.90;;;;;;4996578;28;20095;-77
2022/08/31 01:09:36;;;;;;;0.57;0.45;;;19.10;99.90;;;;;;5009138;28;20151;-76
2022/08/31 01:12:04;;;;;;;1.02;1.02;;;19.20;99.90;;;;;;4991524;28;20489;-76
2022/08/31 01:14:30;;;;;;;0.40;0.40;;;19.20;99.90;;;;;;4989923;28;20092;-76
2022/08/31 01:16:55;;;;;;;0.50;0.50;;;19.10;99.90;;;;;;4989670;28;20034;-76
2022/08/31 01:19:34;;;;;;;0.63;0.63;;;19.20;99.90;;;;;;4994056;28;20082;-76
2022/08/31 01:22:09;;;;;;;0.30;0.30;;;19.10;99.90;;;;;;5009632;28;20050;-76
2022/08/31 01:24:36;;;;;;;2.75;1.15;;;19.10;99.90;;;;;;5008022;28;20034;-76
2022/08/31 01:27:03;;;;;;;0.50;0.50;;;19.10;99.90;;;;;;4993376;28;20111;-75
2022/08/31 01:29:30;;;;;;;0.90;0.90;;;19.10;99.90;;;;;;4989557;28;20068;-75
2022/08/31 01:31:56;;;;;;;1.20;0.90;;;19.00;99.90;;;;;;4989309;28;20083;-77
2022/08/31 01:34:22;;;;;;;1.10;1.00;;;18.90;99.90;;;;;;4993394;28;20466;-76
2022/08/31 01:36:49;;;;;;;0.50;0.50;;;18.90;99.90;;;;;;5008703;28;20105;-76
2022/08/31 01:39:15;;;;;;;0.30;0.30;;;18.90;99.90;;;;;;5008987;28;20461;-77
2022/08/31 01:41:42;;;;;;;0.55;0.55;;;18.90;99.90;;;;;;4993214;28;20050;-77
2022/08/31 01:44:11;;;;;;;0.82;0.82;;;18.90;99.90;;;;;;4988025;28;20058;-77
2022/08/31 01:46:37;;;;;;;0.90;0.80;;;18.90;99.90;;;;;;4989161;28;20029;-77
2022/08/31 01:49:02;;;;;;;0.40;0.40;;;18.90;99.90;;;;;;4993511;28;20026;-77
2022/08/31 01:51:28;;;;;;;1.40;1.30;;;18.90;99.90;;;;;;5007599;28;20481;-76
2022/08/31 01:53:54;;;;;;;0.93;0.93;;;18.90;99.90;;;;;;5008806;28;20257;-76
2022/08/31 01:56:28;;;;;;;0.68;0.68;;;18.90;99.90;;;;;;4997917;28;20446;-77
2022/08/31 01:58:54;;;;;;;20.52;2.35;;;18.80;99.90;;;;;;4988894;28;20596;-76
2022/08/31 02:01:23;;;;;;;0.60;0.60;;;18.90;99.90;;;;;;4987740;28;20125;-77
2022/08/31 02:03:49;;;;;;;0.45;0.40;;;18.90;99.90;;;;;;4989046;28;20397;-77
2022/08/31 02:06:14;;;;;;;0.70;0.70;;;19.00;99.90;;;;;;5008629;28;20037;-77
2022/08/31 02:08:40;;;;;;;0.40;0.40;;;19.00;99.90;;;;;;5008623;28;20418;-76
2022/08/31 02:11:06;;;;;;;0.30;0.30;;;19.00;99.90;;;;;;5002375;28;20030;-77
2022/08/31 02:13:33;;;;;;;0.40;0.40;;;19.00;99.90;;;;;;4987773;28;20129;-77
2022/08/31 02:15:59;;;;;;;0.40;0.40;;;19.00;99.90;;;;;;4987738;28;20088;-77
2022/08/31 02:18:25;;;;;;;0.60;0.60;;;19.00;99.90;;;;;;4987684;28;20497;-77
2022/08/31 02:20:51;;;;;;;0.43;0.43;;;18.90;99.90;;;;;;5002024;28;20130;-77
2022/08/31 02:23:16;;;;;;;1.43;1.30;;;18.90;99.90;;;;;;5006769;28;20075;-77
2022/08/31 02:25:42;;;;;;;1.17;1.07;;;18.90;99.90;;;;;;5005287;28;20041;-76
2022/08/31 02:28:11;;;;;;;0.50;0.50;;;18.80;99.90;;;;;;4967875;28;20569;-78
2022/08/31 02:30:37;;;;;;;0.52;0.52;;;18.80;99.90;;;;;;4968921;28;20179;-76
2022/08/31 02:33:03;;;;;;;1.33;1.23;;;18.80;99.90;;;;;;4969538;28;20058;-76
2022/08/31 02:35:29;;;;;;;1.15;1.05;;;18.80;99.90;;;;;;4987200;28;20408;-75
2022/08/31 02:37:54;;;;;;;0.40;0.40;;;18.90;99.90;;;;;;5008105;28;20034;-77
2022/08/31 02:40:20;;;;;;;0.33;0.33;;;18.80;99.90;;;;;;5008026;28;20081;-77
2022/08/31 02:42:46;;;;;;;0.40;0.40;;;18.80;99.90;;;;;;4990337;28;20583;-77
2022/08/31 02:45:11;;;;;;;0.40;0.40;;;18.90;99.90;;;;;;4987347;28;20038;-77
2022/08/31 02:47:37;;;;;;;0.40;0.40;;;18.80;99.90;;;;;;4989086;28;20083;-77
2022/08/31 02:50:05;;;;;;;0.70;0.70;;;18.80;99.90;;;;;;4991083;28;20026;-77
2022/08/31 02:52:32;;;;;;;0.40;0.40;;;18.80;99.90;;;;;;5006333;28;20054;-77
2022/08/31 02:54:58;;;;;;;1.23;1.13;;;18.80;99.90;;;;;;5008275;28;20026;-77
2022/08/31 02:57:24;;;;;;;0.50;0.50;;;18.80;99.90;;;;;;4998732;28;20076;-77
2022/08/31 02:59:49;;;;;;;0.40;0.40;;;18.70;99.90;;;;;;4999589;28;20366;-77
2022/08/31 03:02:16;;;;;;;0.40;0.40;;;18.70;99.90;;;;;;5005283;28;20038;-77
2022/08/31 03:04:42;;;;;;;1.45;1.35;;;18.70;99.90;;;;;;4988416;28;20109;-77
2022/08/31 03:07:08;;;;;;;3.30;0.97;;;18.70;99.90;;;;;;4988073;28;20412;-77
2022/08/31 03:09:33;;;;;;;1.75;1.65;;;18.70;99.90;;;;;;4986909;28;20027;-77
2022/08/31 03:11:59;;;;;;;0.63;0.63;;;18.60;99.90;;;;;;4989062;28;20088;-77
2022/08/31 03:14:26;;;;;;;0.90;0.90;;;18.60;99.90;;;;;;4988402;28;20233;-77
2022/08/31 03:16:52;;;;;;;0.75;0.75;;;18.70;99.90;;;;;;4987876;28;20409;-77
2022/08/31 03:19:18;;;;;;;;;;;18.60;99.90;;;;;;4988473;28;20366;-76
2022/08/31 03:21:45;;;;;;;1.85;1.55;;;18.60;99.90;;;;;;4999672;28;19921;-77
2022/08/31 03:24:12;;;;;;;0.80;0.65;;;18.70;99.90;;;;;;5005660;28;20116;-76
2022/08/31 03:26:37;;;;;;;0.60;0.60;;;18.50;99.90;;;;;;5006172;28;20029;-76
2022/08/31 03:29:03;;;;;;;1.27;1.17;;;18.50;99.90;;;;;;5001916;28;20529;-76
2022/08/31 03:31:30;;;;;;;1.77;1.03;;;18.50;99.90;;;;;;5005928;28;20034;-76
2022/08/31 03:33:56;;;;;;;0.88;0.85;;;18.50;99.90;;;;;;5007477;28;20022;-77
2022/08/31 03:36:22;;;;;;;0.77;0.77;;;18.50;99.90;;;;;;4998477;28;20045;-76
2022/08/31 03:38:48;;;;;;;0.75;0.75;;;18.40;99.90;;;;;;4987914;28;20065;-76
2022/08/31 03:41:18;;;;;;;0.97;0.97;;;18.50;99.90;;;;;;4986109;28;20509;-75
2022/08/31 03:43:44;;;;;;;0.55;0.55;;;18.40;99.90;;;;;;5001507;28;20038;-77
2022/08/31 03:46:10;;;;;;;0.47;0.47;;;18.50;99.90;;;;;;5005601;28;20107;-76
2022/08/31 03:48:35;;;;;;;0.40;0.40;;;18.40;99.90;;;;;;5007248;28;20030;-76
2022/08/31 03:51:01;;;;;;;0.47;0.47;;;18.40;99.90;;;;;;5005593;28;20457;-76
2022/08/31 03:53:27;;;;;;;0.63;0.63;;;18.40;99.90;;;;;;5005840;28;20075;-78
2022/08/31 03:56:00;;;;;;;0.73;0.73;;;18.40;99.90;;;;;;5007086;28;20473;-76
2022/08/31 03:58:30;;;;;;;1.42;1.05;;;18.40;99.90;;;;;;4995647;28;20065;-77
2022/08/31 04:00:55;;;;;;;2.47;2.05;;;18.50;99.90;;;;;;4986203;28;20461;-77
2022/08/31 04:03:22;;;;;;;1.73;1.53;;;18.50;99.90;;;;;;4986262;28;20114;-76
2022/08/31 04:05:48;;;;;;;0.30;0.30;;;18.40;99.90;;;;;;4990636;28;20027;-76
2022/08/31 04:08:15;;;;;;;1.73;1.60;;;18.40;99.90;;;;;;5008663;28;20059;-78
2022/08/31 04:10:43;;;;;;;0.32;0.32;;;18.40;99.90;;;;;;5008607;28;20374;-76
2022/08/31 04:13:09;;;;;;;0.55;0.55;;;18.40;99.90;;;;;;5007336;28;20030;-77
2022/08/31 04:15:38;;;;;;;0.70;0.63;;;18.40;99.90;;;;;;5010550;28;20128;-77
2022/08/31 04:18:04;;;;;;;0.65;0.65;;;18.40;99.90;;;;;;5008799;28;20186;-76
2022/08/31 04:20:38;;;;;;;0.43;0.43;;;18.40;99.90;;;;;;5008682;28;20083;-77
2022/08/31 04:23:04;;;;;;;3.97;1.15;;;18.40;99.90;;;;;;4992122;28;20035;-77
2022/08/31 04:25:30;;;;;;;0.30;0.30;;;18.50;99.90;;;;;;4989081;28;20054;-77
2022/08/31 04:27:56;;;;;;;0.40;0.40;;;18.50;99.90;;;;;;4993204;28;20474;-77
2022/08/31 04:30:22;;;;;;;0.53;0.53;;;18.60;99.90;;;;;;5010398;28;20042;-77
2022/08/31 04:32:48;;;;;;;0.52;0.52;;;18.60;99.90;;;;;;5010383;28;20078;-77
2022/08/31 04:35:14;;;;;;;;;;;18.70;99.90;;;;;;5010801;28;20026;-76
2022/08/31 04:37:40;;;;;;;1.40;0.75;;;18.70;99.90;;;;;;4997213;28;19974;-76
2022/08/31 04:40:16;;;;;;;0.73;0.73;;;18.70;99.90;;;;;;4990770;28;20034;-76
2022/08/31 04:42:43;;;;;;;1.05;1.00;;;18.70;99.90;;;;;;4988731;28;20054;-76
2022/08/31 04:45:11;;;;;;;0.88;0.70;;;18.80;99.90;;;;;;5009161;28;20046;-77
2022/08/31 04:47:37;;;;;;;0.60;0.60;;;18.80;99.90;;;;;;5008350;28;20034;-77
2022/08/31 04:50:04;;;;;;;1.10;1.10;;;18.80;99.90;;;;;;5009556;28;20034;-76
2022/08/31 04:52:30;;;;;;;0.47;0.47;;;18.90;99.90;;;;;;5001306;28;20482;-77
2022/08/31 04:54:55;;;;;;;0.60;0.60;;;18.90;99.90;;;;;;4990517;28;20045;-76
2022/08/31 04:57:21;;;;;;;2.30;1.27;;;19.00;99.90;;;;;;4988995;28;20498;-76
2022/08/31 04:59:47;;;;;;;1.60;1.50;;;18.90;99.90;;;;;;4989775;28;20062;-77
2022/08/31 05:02:12;;;;;;;0.83;0.83;;;18.90;99.90;;;;;;4989180;28;20031;-76
2022/08/31 05:04:38;;;;;;;0.73;0.73;;;18.90;99.90;;;;;;4990527;28;20030;-75
2022/08/31 05:07:03;;;;;;;0.30;0.30;;;18.90;99.90;;;;;;4986324;28;20557;-77
2022/08/31 05:09:29;;;;;;;0.80;0.77;;;18.80;99.90;;;;;;4968729;28;20027;-77
2022/08/31 05:11:55;;;;;;;0.50;0.50;;;18.90;99.90;;;;;;4970214;28;20539;-76
2022/08/31 05:14:22;;;;;;;0.40;0.40;;;18.90;99.90;;;;;;4971297;28;20048;-77
2022/08/31 05:16:49;;;;;;;2.55;1.50;;;19.00;99.90;;;;;;4968935;28;20501;-77
2022/08/31 05:19:15;;;;;;;0.88;0.80;;;19.10;99.90;;;;;;4968923;28;20031;-77
2022/08/31 05:21:42;;;;;;;0.47;0.47;;;19.10;99.90;;;;;;4968767;28;20042;-77
2022/08/31 05:24:17;;;;;;;0.40;0.40;;;19.10;99.90;;;;;;4985377;28;20076;-77
2022/08/31 05:26:47;;;;;;;1.20;0.82;;;19.10;99.90;;;;;;4989615;28;20389;-76
2022/08/31 05:29:13;;;;;;;0.40;0.40;;;18.90;99.90;;;;;;4987851;28;20022;-77
2022/08/31 05:31:40;;;;;;;;;;;19.00;99.90;;;;;;4981081;28;20085;-76
2022/08/31 05:34:06;;;;;;;0.30;0.30;;;19.10;99.90;;;;;;4970115;28;19910;-77
2022/08/31 05:36:33;;;;;;;0.60;0.60;;;19.10;99.90;;;;;;4970151;28;20035;-76
2022/08/31 05:39:00;;;;;;;1.30;1.20;;;19.20;99.90;;;;;;4983532;28;20474;-76
2022/08/31 05:41:25;;;;;;;;;;;19.30;99.90;;;;;;4989775;28;20054;-76
2022/08/31 05:43:51;;;;;;;0.70;0.70;;;19.50;99.90;;;;;;4988310;28;19909;-76
2022/08/31 05:46:17;;;;;;;0.40;0.40;;;19.60;99.90;;;;;;4970247;28;20532;-76
2022/08/31 05:48:43;;;;;;;0.30;0.30;;;19.70;99.90;;;;;;4969194;28;20031;-77
2022/08/31 05:51:11;;;;;;;0.40;0.40;;;19.90;99.90;;;;;;4969528;28;20034;-78
2022/08/31 05:53:38;;;;;;;0.43;0.43;;;19.90;99.90;;;;;;4968431;28;20118;-77
2022/08/31 05:56:10;;;;;;;0.40;0.40;;;20.00;99.90;;;;;;4982724;28;20030;-77
2022/08/31 05:58:40;;;;;;;0.70;0.70;;;20.00;99.90;;;;;;4988892;28;20105;-77
2022/08/31 06:01:25;;;;;;;0.55;0.55;;;20.00;99.90;;;;;;4972644;28;20066;-77
2022/08/31 06:03:52;;;;;;;0.40;0.40;;;20.00;99.90;;;;;;4969403;28;20031;-77
2022/08/31 06:06:18;;;;;;;1.33;1.23;;;20.10;99.90;;;;;;4980957;28;20042;-76
2022/08/31 06:08:44;;;;;;;0.52;0.52;;;20.10;99.90;;;;;;4988876;28;20117;-76
2022/08/31 06:11:18;;;;;;;1.10;1.07;;;20.10;99.90;;;;;;4988815;28;20155;-78
2022/08/31 06:13:45;;;;;;;0.45;0.45;;;20.00;99.90;;;;;;4984525;28;20113;-76
2022/08/31 06:16:12;;;;;;;0.40;0.40;;;20.10;99.90;;;;;;4970031;28;20470;-77
2022/08/31 06:18:39;;;;;;;0.68;0.68;;;20.20;99.90;;;;;;4969544;28;20034;-77
2022/08/31 06:21:11;;;;;;;0.57;0.57;;;20.20;99.90;;;;;;4968107;28;20070;-76
2022/08/31 06:23:41;;;;;;;1.05;1.05;;;20.20;99.90;;;;;;4969574;28;20037;-78
2022/08/31 06:26:11;;;;;;;0.40;0.40;;;20.20;99.90;;;;;;4968603;28;20031;-77
2022/08/31 06:28:38;;;;;;;0.57;0.52;;;20.50;99.90;;;;;;4969222;28;20035;-77
2022/08/31 06:31:07;;;;;;;0.57;0.57;;;20.50;99.90;;;;;;4988488;28;20030;-77
2022/08/31 06:33:34;;;;;;;0.47;0.47;;;20.50;99.90;;;;;;4988628;28;20027;-76
2022/08/31 06:36:00;;;;;;;0.40;0.40;;;20.60;99.90;;;;;;4986478;28;20038;-77
2022/08/31 06:38:25;;;;;;;0.30;0.30;;;20.60;99.90;;;;;;4988677;28;20038;-77
2022/08/31 06:40:51;;;;;;;0.40;0.40;;;20.70;99.90;;;;;;4987208;28;20050;-77
2022/08/31 06:43:16;;;;;;;0.50;0.50;;;20.80;99.90;;;;;;4983624;28;20031;-77
2022/08/31 06:45:42;;;;;;;1.40;0.70;;;20.80;99.90;;;;;;4969510;28;20482;-77
2022/08/31 06:48:08;;;;;;;0.40;0.40;;;20.90;99.90;;;;;;4969549;28;20073;-76
2022/08/31 06:50:33;;;;;;;1.70;0.70;;;21.00;99.90;;;;;;4969421;28;20027;-70
2022/08/31 06:52:59;;;;;;;0.40;0.40;;;21.00;99.90;;;;;;4969182;28;20054;-70
2022/08/31 06:55:25;;;;;;;0.30;0.30;;;21.10;99.90;;;;;;4985090;28;20034;-69
2022/08/31 06:57:50;;;;;;;1.67;1.57;;;21.20;99.90;;;;;;4986388;28;20030;-68
2022/08/31 07:00:16;;;;;;;0.60;0.60;;;21.30;99.90;;;;;;4970555;28;20300;-71
2022/08/31 07:02:42;;;;;;;0.50;0.50;;;21.30;99.90;;;;;;4968536;28;20561;-69
2022/08/31 07:05:08;;;;;;;0.50;0.50;;;21.40;99.90;;;;;;4980110;28;20458;-70
2022/08/31 07:07:33;;;;;;;1.15;1.05;;;21.50;99.90;;;;;;4988027;28;20041;-69
2022/08/31 07:09:59;;;;;;;0.30;0.30;;;21.70;99.90;;;;;;4988206;28;20030;-70
2022/08/31 07:12:24;;;;;;;2.13;1.60;;;21.80;99.90;;;;;;4987119;28;20039;-70
2022/08/31 07:14:50;;;;;;;0.50;0.50;;;21.90;99.90;;;;;;4968217;28;20030;-71
2022/08/31 07:17:15;;;;;;;0.57;0.57;;;22.00;99.90;;;;;;4966781;28;20477;-70
2022/08/31 07:19:41;;;;;;;0.33;0.33;;;22.00;99.90;;;;;;4968174;28;20377;-70
2022/08/31 07:22:08;;;;;;;0.40;0.40;;;21.90;99.90;;;;;;4967939;28;20034;-70
2022/08/31 07:24:34;;;;;;;0.30;0.30;;;21.90;99.90;;;;;;4982936;28;20123;-69
2022/08/31 07:27:08;;;;;;;0.70;0.60;;;21.80;99.90;;;;;;4987723;28;20034;-69
2022/08/31 07:29:38;;;;;;;0.30;0.30;;;21.90;99.90;;;;;;4987492;28;20032;-69
2022/08/31 07:32:06;;;;;;;0.77;0.77;;;22.00;99.90;;;;;;4985890;28;20100;-70
2022/08/31 07:34:32;;;;;;;0.70;0.68;;;22.10;99.90;;;;;;4986418;28;20026;-69
2022/08/31 07:42:31;;;;;;;0.40;0.40;;;22.40;99.90;;;;;;5013208;28;20099;-70
2022/08/31 07:44:59;;;;;;;0.30;0.30;;;22.30;99.90;;;;;;4996884;28;20035;-69
2022/08/31 07:47:27;;;;;;;0.40;0.40;;;22.30;99.90;;;;;;4993879;28;20050;-70
2022/08/31 07:49:54;;;;;;;0.30;0.30;;;22.40;99.90;;;;;;4994297;28;20052;-69
2022/08/31 07:52:22;;;;;;;0.45;0.45;;;22.30;99.90;;;;;;4999148;28;20449;-69
2022/08/31 07:54:54;;;;;;;0.30;0.30;;;22.10;99.90;;;;;;5013370;28;20461;-70
2022/08/31 07:57:24;;;;;;;6.22;1.33;;;22.00;99.90;;;;;;5013108;28;20038;-69
2022/08/31 07:59:59;;;;;;;0.30;0.30;;;21.90;99.90;;;;;;5011469;28;20051;-70
2022/08/31 08:02:25;;;;;;;1.00;0.93;;;21.80;99.90;;;;;;5012931;28;20038;-69
2022/08/31 08:04:53;;;;;;;0.90;0.80;;;21.80;99.90;;;;;;5002899;28;20042;-70
2022/08/31 08:07:18;;;;;;;0.35;0.35;;;21.90;99.90;;;;;;5012916;28;20519;-70
2022/08/31 08:09:44;;;;;;;0.30;0.30;;;21.90;99.90;;;;;;5013508;28;20113;-70
2022/08/31 08:12:09;;;;;;;0.40;0.40;;;21.90;99.90;;;;;;5013322;28;20026;-68
2022/08/31 08:14:38;;;;;;;0.30;0.30;;;21.90;99.90;;;;;;5011545;28;20366;-69
2022/08/31 08:17:06;;;;;;;0.63;0.63;;;22.00;99.90;;;;;;5009974;28;20501;-71
2022/08/31 08:19:32;;;;;;;0.22;0.22;;;22.20;99.90;;;;;;5011617;28;20037;-70
2022/08/31 08:21:59;;;;;;;0.40;0.40;;;22.40;99.90;;;;;;5013045;28;20065;-69
2022/08/31 08:24:25;;;;;;;;;;;22.60;99.90;;;;;;5012153;28;20065;-70
2022/08/31 08:26:51;;;;;;;0.30;0.30;;;22.60;99.90;;;;;;5012320;28;20360;-69
2022/08/31 08:29:18;;;;;;;0.38;0.35;;;22.60;99.90;;;;;;5011211;28;20030;-68
2022/08/31 08:31:53;;;;;;;0.38;0.38;;;22.40;99.90;;;;;;5011665;28;20082;-71
2022/08/31 08:34:22;;;;;;;0.65;0.65;;;22.20;99.90;;;;;;5013234;28;20037;-70
2022/08/31 08:36:49;;;;;;;0.40;0.40;;;22.20;99.90;;;;;;5012915;28;20082;-69
2022/08/31 08:39:16;;;;;;;0.30;0.30;;;22.50;99.90;;;;;;4992638;28;20034;-70
2022/08/31 08:41:44;;;;;;;0.50;0.50;;;22.90;99.90;;;;;;4991510;28;20050;-69
2022/08/31 08:44:13;;;;;;;0.30;0.30;;;23.30;99.90;;;;;;4994316;28;20056;-71
2022/08/31 08:46:49;;;;;;;0.20;0.20;;;23.60;99.90;;;;;;4994084;28;20081;-70
2022/08/31 08:49:29;;;;;;;0.30;0.30;;;23.90;99.90;;;;;;4991378;28;20105;-69
2022/08/31 08:52:21;;;;;;;0.45;0.45;;;24.20;99.90;;;;;;4989676;28;20401;-70
2022/08/31 08:54:49;;;;;;;0.70;0.70;;;24.30;99.90;;;;;;4990488;28;20034;-69
2022/08/31 08:57:23;;;;;;;0.40;0.40;;;24.30;99.90;;;;;;4989207;28;20041;-70
2022/08/31 08:59:52;;;;;;;0.60;0.60;;;24.10;99.90;;;;;;4991468;28;20042;-70
2022/08/31 09:02:22;;;;;;;0.40;0.40;;;24.10;99.90;;;;;;4987856;28;20034;-70
2022/08/31 09:05:13;;;;;;;0.50;0.50;;;24.20;99.90;;;;;;4989745;28;20117;-70
2022/08/31 09:07:57;;;;;;;0.52;0.52;;;24.10;99.90;;;;;;4988030;28;20448;-70
2022/08/31 09:10:58;;;;;;;0.40;0.40;;;24.40;99.90;;;;;;4970296;28;20027;-69
2022/08/31 09:13:56;;;;;;;0.55;0.55;;;24.90;99.90;;;;;;4969710;28;20037;-71
2022/08/31 09:16:39;;;;;;;0.20;0.20;;;24.80;99.90;;;;;;4988908;28;20105;-70
2022/08/31 09:19:13;;;;;;;0.20;0.20;;;24.40;99.90;;;;;;4969743;28;20466;-70
2022/08/31 09:21:45;;;;;;;0.68;0.68;;;24.10;99.90;;;;;;4970215;28;20041;-69
2022/08/31 09:24:18;;;;;;;0.28;0.28;;;24.20;99.90;;;;;;4988391;28;20422;-69
2022/08/31 09:27:16;;;;;;;0.38;0.38;;;24.40;99.90;;;;;;5009065;28;20498;-69
2022/08/31 09:29:53;;;;;;;0.30;0.30;;;24.30;99.90;;;;;;5007432;28;20041;-69
2022/08/31 09:32:30;;;;;;;0.30;0.30;;;24.10;99.90;;;;;;4991588;28;20126;-69
2022/08/31 09:35:28;;;;;;;0.35;0.35;;;24.30;99.90;;;;;;4988023;28;20029;-69
2022/08/31 09:38:00;;;;;;;0.30;0.30;;;24.60;99.90;;;;;;4995006;28;20049;-69
2022/08/31 09:40:48;;;;;;;0.30;0.30;;;24.90;99.90;;;;;;5005173;28;20042;-70
2022/08/31 09:43:24;;;;;;;0.50;0.50;;;25.20;99.90;;;;;;5008999;28;20412;-70
2022/08/31 09:46:10;;;;;;;0.98;0.70;;;25.30;99.90;;;;;;5007520;28;20485;-69
2022/08/31 09:48:54;;;;;;;0.40;0.40;;;25.10;99.90;;;;;;5007401;28;20030;-69
2022/08/31 09:51:35;;;;;;;0.20;0.20;;;24.80;99.90;;;;;;5008402;28;20037;-69
2022/08/31 09:57:03;;;;;;;0.40;0.40;;;24.90;99.90;;;;;;4989105;28;20045;-70
2022/08/31 09:59:43;;;;;;;0.60;0.60;;;25.00;99.90;;;;;;4989206;28;20031;-70
2022/08/31 10:02:11;;;;;;;0.30;0.30;;;24.70;99.90;;;;;;5004505;28;20061;-69
2022/08/31 10:04:53;;;;;;;0.80;0.60;;;24.50;99.90;;;;;;5008077;28;20120;-71
2022/08/31 10:07:37;;;;;;;0.25;0.25;;;24.50;99.90;;;;;;5008436;28;20135;-69
2022/08/31 10:10:14;;;;;;;3.40;1.67;;;24.60;99.90;;;;;;4998451;28;20026;-69
2022/08/31 10:12:46;;;;;;;;;;;24.60;99.90;;;;;;4988605;28;20077;-70
2022/08/31 10:15:25;;;;;;;0.40;0.40;;;24.60;99.90;;;;;;4989162;28;19978;-70
2022/08/31 10:18:13;;;;;;;0.30;0.30;;;24.80;99.90;;;;;;4993171;28;20452;-70
2022/08/31 10:20:44;;;;;;;;;;;25.10;99.90;;;;;;5007396;28;20032;-70
2022/08/31 10:23:19;;;;;;;0.30;0.30;;;24.90;99.90;;;;;;5007966;28;19913;-70
2022/08/31 10:25:51;;;;;;;0.47;0.40;;;24.70;99.90;;;;;;4993767;28;20034;-70
2022/08/31 10:28:36;;;;;;;0.68;0.68;;;24.40;99.90;;;;;;4988150;28;20029;-70
2022/08/31 10:31:28;;;;;;;0.60;0.60;;;24.10;99.90;;;;;;4988082;28;20057;-71
2022/08/31 10:36:44;;;;;;;2.08;0.90;;;23.80;99.90;;;;;;4988097;28;20061;-70
2022/08/31 10:39:43;;;;;;;0.30;0.30;;;23.90;99.90;;;;;;4986420;28;20064;-68
2022/08/31 10:42:15;;;;;;;0.40;0.40;;;24.40;99.90;;;;;;4982453;28;20058;-70
2022/08/31 10:44:51;;;;;;;0.43;0.43;;;24.60;99.90;;;;;;4968928;28;20110;-70
2022/08/31 10:47:18;;;;;;;0.50;0.50;;;24.70;99.90;;;;;;4992745;28;20034;-70
2022/08/31 10:49:44;;;;;;;0.50;0.50;;;24.50;99.90;;;;;;5006767;28;20033;-70
2022/08/31 10:52:28;;;;;;;0.30;0.30;;;24.60;99.90;;;;;;5006374;28;20097;-71
2022/08/31 10:55:24;;;;;;;0.65;0.65;;;24.70;99.90;;;;;;5005062;28;20537;-70
2022/08/31 10:58:05;;;;;;;4.38;0.88;;;24.80;99.90;;;;;;5007869;28;20043;-70
2022/08/31 11:00:57;;;;;;;0.77;0.77;;;24.70;99.90;;;;;;4986451;28;20049;-71
2022/08/31 11:03:32;;;;;;;0.43;0.43;;;24.40;99.90;;;;;;5006491;28;20401;-70
2022/08/31 11:06:02;;;;;;;0.30;0.30;;;24.00;99.90;;;;;;5007559;28;20062;-69
2022/08/31 11:08:56;;;;;;;0.20;0.20;;;23.70;99.90;;;;;;5007352;28;20515;-69
2022/08/31 11:11:45;;;;;;;0.38;0.38;;;23.50;99.90;;;;;;4994440;28;20035;-70
2022/08/31 11:14:48;;;;;;;0.28;0.28;;;23.30;99.90;;;;;;4985810;28;20099;-70
2022/08/31 11:17:26;;;;;;;0.28;0.28;;;23.20;99.90;;;;;;4994886;28;20087;-70
2022/08/31 11:20:09;;;;;;;0.38;0.38;;;23.10;99.90;;;;;;4995144;28;20030;-69
2022/08/31 11:22:45;;;;;;;0.40;0.40;;;23.00;99.90;;;;;;4968063;28;20031;-71
2022/08/31 11:25:32;;;;;;;1.40;1.13;;;23.20;99.90;;;;;;4969775;28;20034;-70
2022/08/31 11:28:12;;;;;;;0.35;0.35;;;23.70;99.90;;;;;;4968091;28;20495;-70
2022/08/31 11:30:45;;;;;;;0.38;0.38;;;24.10;99.90;;;;;;4966886;28;20081;-70
2022/08/31 11:33:18;;;;;;;0.52;0.52;;;24.50;99.90;;;;;;4995077;28;20377;-69
2022/08/31 11:35:48;;;;;;;0.45;0.45;;;24.50;99.90;;;;;;5006178;28;20056;-70
2022/08/31 11:38:48;;;;;;;0.20;0.20;;;24.40;99.90;;;;;;4967756;28;20023;-70
2022/08/31 11:41:48;;;;;;;0.30;0.30;;;24.20;99.90;;;;;;4983295;28;20067;-71
2022/08/31 11:44:28;;;;;;;0.22;0.22;;;24.30;99.90;;;;;;4971424;28;20031;-71
2022/08/31 11:47:28;;;;;;;0.43;0.43;;;24.20;99.90;;;;;;5003786;28;20117;-70
2022/08/31 11:49:56;;;;;;;0.45;0.45;;;24.20;99.90;;;;;;4967677;28;20061;-70
2022/08/31 11:52:27;;;;;;;0.35;0.35;;;24.00;99.90;;;;;;4966525;28;20118;-70
2022/08/31 11:55:01;;;;;;;0.32;0.32;;;24.10;99.90;;;;;;4967999;28;20027;-70
2022/08/31 11:57:31;;;;;;;0.20;0.20;;;24.40;99.90;;;;;;4982387;28;20558;-71
2022/08/31 11:59:58;;;;;;;0.30;0.30;;;24.70;99.90;;;;;;4987631;28;20073;-70
2022/08/31 12:02:25;;;;;;;0.22;0.22;;;24.60;99.90;;;;;;4987694;28;20512;-70
2022/08/31 12:05:03;;;;;;;;;;;24.70;99.90;;;;;;4991452;28;20070;-70
2022/08/31 12:07:30;;;;;;;0.93;0.90;;;24.70;99.90;;;;;;5004819;28;19942;-69
2022/08/31 12:10:21;;;;;;;0.30;0.30;;;24.90;99.90;;;;;;5005010;28;20116;-70
2022/08/31 12:12:50;;;;;;;0.28;0.28;;;25.00;99.90;;;;;;4989666;28;20046;-70
2022/08/31 12:15:52;;;;;;;0.43;0.43;;;25.20;99.90;;;;;;4987505;28;20129;-71
2022/08/31 12:18:21;;;;;;;0.63;0.63;;;25.20;99.90;;;;;;5029540;28;20390;-70
2022/08/31 12:24:00;;;;;;;0.35;0.35;;;25.00;99.90;;;;;;4986873;28;20033;-71
2022/08/31 12:26:37;;;;;;;0.20;0.20;;;24.60;99.90;;;;;;4992938;28;20041;-71
2022/08/31 12:29:25;;;;;;;0.70;0.70;;;24.20;99.90;;;;;;5009742;28;20538;-70
2022/08/31 12:32:11;;;;;;;0.30;0.30;;;24.00;99.90;;;;;;5009150;28;20064;-70
2022/08/31 12:34:47;;;;;;;0.25;0.25;;;23.90;99.90;;;;;;4994836;28;20059;-71
2022/08/31 12:37:21;;;;;;;0.50;0.50;;;23.90;99.90;;;;;;5007015;28;20029;-71
2022/08/31 12:39:46;;;;;;;0.35;0.35;;;23.90;99.90;;;;;;5009726;28;20033;-69
2022/08/31 12:42:12;;;;;;;0.37;0.37;;;23.80;99.90;;;;;;5000027;28;20058;-70
2022/08/31 12:44:50;;;;;;;0.75;0.70;;;23.80;99.90;;;;;;4990429;28;20105;-70
2022/08/31 12:47:18;;;;;;;1.10;0.73;;;23.70;99.90;;;;;;4989958;28;20027;-71
2022/08/31 12:50:12;;;;;;;0.28;0.28;;;23.70;99.90;;;;;;5004152;28;20026;-70
2022/08/31 12:53:05;;;;;;;0.80;0.77;;;23.70;99.90;;;;;;5009103;28;20553;-70
2022/08/31 12:55:42;;;;;;;1.17;1.05;;;23.60;99.90;;;;;;5008909;28;20064;-70
2022/08/31 12:58:28;;;;;;;0.30;0.30;;;23.60;99.90;;;;;;4994258;28;20075;-71
2022/08/31 13:01:06;;;;;;;0.40;0.40;;;23.60;99.90;;;;;;4989746;28;20036;-70
2022/08/31 13:03:32;;;;;;;0.20;0.20;;;23.70;99.90;;;;;;4991868;28;20030;-70
2022/08/31 13:06:12;;;;;;;0.35;0.32;;;23.80;99.90;;;;;;5006219;28;20034;-70
2022/08/31 13:08:44;;;;;;;0.30;0.30;;;23.90;99.90;;;;;;4988674;28;20473;-71
2022/08/31 13:11:26;;;;;;;0.25;0.25;;;24.00;99.90;;;;;;4989369;28;20172;-71
2022/08/31 13:14:05;;;;;;;0.40;0.40;;;24.00;99.90;;;;;;4987517;28;20030;-71
2022/08/31 13:16:31;;;;;;;1.08;0.80;;;24.20;99.90;;;;;;4992026;28;20037;-70
2022/08/31 13:19:02;;;;;;;0.30;0.30;;;24.30;99.90;;;;;;5006039;28;20037;-71
2022/08/31 13:21:28;;;;;;;0.52;0.40;;;24.30;99.90;;;;;;5008889;28;20251;-71
2022/08/31 13:24:06;;;;;;;0.35;0.35;;;24.20;99.90;;;;;;5008801;28;20118;-70
2022/08/31 13:26:34;;;;;;;0.30;0.30;;;24.10;99.90;;;;;;4995138;28;20389;-71
2022/08/31 13:29:03;;;;;;;0.75;0.75;;;23.90;99.90;;;;;;4989353;28;20038;-70